Meteo Giornale » Osservazioni meteo Cina » Lanzhou-Zhongchuan
ore: 13:00 - Osservazioni Meteo Lanzhou-Zhongchuan
Lat. 36° 1' N Lon. 103° 45' E Alt. metri s.l.m.
23 °C
Sereno
Temp. 24 Ore
12 °C
26 °C
Sud/Sud-Ovest
14.4 Km/h
Dew point 9 °C
Umidità 40 %
Visibilità 10 Km
Il sole sorge alle ore 06:36
Il sole tramonta alle ore 19:33
| Data e Ora | Cielo e Fenomeni | T °C | DP °C | Um. % | Pres. hPa | Vis. km | Vento km/h | |
|---|---|---|---|---|---|---|---|---|
| Oggi h: 13:00 | Sereno | 23 | 9 | 40 | 1021 | 10 | S/SO 14.4 | |
| Oggi h: 12:00 | Sereno | 21 | 10 | 49 | 1022 | 10 | N 10.8 | |
| Oggi h: 11:00 | Sereno | 20 | 9 | 49 | 1022 | 10 | N 7.2 | |
| Oggi h: 10:00 | Sereno | 18 | 9 | 55 | 1022 | 10 | N 3.6 | |
| Oggi h: 09:00 | Sereno | 17 | 9 | 59 | 1022 | 10 | N 3.6 | |
| Oggi h: 08:00 | Sereno | 13 | 10 | 81 | 1023 | 10 | N 3.6 | |
| Oggi h: 07:00 | Sereno | 12 | 10 | 87 | 1022 | 10 | N 3.6 | |
| Oggi h: 06:00 | Sereno | 12 | 9 | 81 | 1022 | 10 | N 3.6 | |
| Oggi h: 05:00 | Sereno | 13 | 10 | 81 | 1022 | 10 | N 0 | |
| Oggi h: 04:00 | Sereno | 12 | 10 | 87 | 1022 | 10 | N 3.6 | |
| Oggi h: 03:00 | Sereno | 13 | 10 | 81 | 1022 | 10 | N 7.2 | |
| Oggi h: 02:00 | Sereno | 13 | 10 | 81 | 1022 | 10 | N 7.2 | |
| Oggi h: 01:00 | Sereno | 14 | 10 | 76 | 1022 | 10 | N 7.2 | |
| Oggi h: 00:00 | Sereno | 15 | 10 | 72 | 1023 | 10 | N 3.6 | |
| Ieri h: 23:00 | Sereno | 16 | 11 | 72 | 1022 | 10 | N 0 | |
| Ieri h: 22:00 | Sereno | 18 | 10 | 59 | 1022 | 10 | N 7.2 | |
| Ieri h: 21:00 | Sereno | 20 | 9 | 49 | 1022 | 10 | N 7.2 | |
| Ieri h: 20:00 | Sereno | 22 | 8 | 40 | 1021 | 10 | N 7.2 | |
| Ieri h: 19:00 | Poco Nuvoloso | 24 | 8 | 35 | 1020 | 10 | E 10.8 | |
| Ieri h: 18:00 | Poco Nuvoloso | 25 | 6 | 29 | 1020 | 10 | E 10.8 | |
| Ieri h: 17:00 | Poco Nuvoloso | 25 | 7 | 31 | 1020 | 10 | N 10.8 | |
| Ieri h: 16:00 | Nuvoloso | 26 | 10 | 36 | 1021 | 10 | E 10.8 | |
| Ieri h: 15:00 | Nuvoloso | 25 | 8 | 33 | 1022 | 10 | N 7.2 | |
| Ieri h: 14:00 | Nuvoloso | 23 | 9 | 40 | 1022 | 10 | N 7.2 | |



